sensor_id;sensor_type;location;lat;lon;timestamp;temperature;humidity
10903;DHT22;5504;47.312;11.060;2023-04-30T00:02:10;14.00;95.30
10903;DHT22;5504;47.312;11.060;2023-04-30T00:04:36;14.10;95.30
10903;DHT22;5504;47.312;11.060;2023-04-30T00:07:01;14.10;95.20
10903;DHT22;5504;47.312;11.060;2023-04-30T00:09:28;14.10;95.00
10903;DHT22;5504;47.312;11.060;2023-04-30T00:11:53;14.10;95.00
10903;DHT22;5504;47.312;11.060;2023-04-30T00:14:19;14.20;94.80
10903;DHT22;5504;47.312;11.060;2023-04-30T00:16:45;14.10;94.70
10903;DHT22;5504;47.312;11.060;2023-04-30T00:19:11;14.00;94.70
10903;DHT22;5504;47.312;11.060;2023-04-30T00:21:36;14.10;94.90
10903;DHT22;5504;47.312;11.060;2023-04-30T00:24:02;14.00;94.70
10903;DHT22;5504;47.312;11.060;2023-04-30T00:26:28;14.00;94.90
10903;DHT22;5504;47.312;11.060;2023-04-30T00:28:54;13.90;95.00
10903;DHT22;5504;47.312;11.060;2023-04-30T00:31:20;14.00;95.00
10903;DHT22;5504;47.312;11.060;2023-04-30T00:33:45;14.10;94.90
10903;DHT22;5504;47.312;11.060;2023-04-30T00:36:11;14.20;94.60
10903;DHT22;5504;47.312;11.060;2023-04-30T00:38:37;14.10;94.70
10903;DHT22;5504;47.312;11.060;2023-04-30T00:41:04;14.10;94.70
10903;DHT22;5504;47.312;11.060;2023-04-30T00:43:32;14.10;94.90
10903;DHT22;5504;47.312;11.060;2023-04-30T00:45:58;14.00;94.90
10903;DHT22;5504;47.312;11.060;2023-04-30T00:48:24;14.10;94.80
10903;DHT22;5504;47.312;11.060;2023-04-30T00:50:51;14.00;94.70
10903;DHT22;5504;47.312;11.060;2023-04-30T00:53:17;14.10;94.80
10903;DHT22;5504;47.312;11.060;2023-04-30T00:55:44;14.10;95.10
10903;DHT22;5504;47.312;11.060;2023-04-30T00:58:11;14.10;95.00
10903;DHT22;5504;47.312;11.060;2023-04-30T01:00:36;14.10;94.80
10903;DHT22;5504;47.312;11.060;2023-04-30T01:03:03;14.10;94.90
10903;DHT22;5504;47.312;11.060;2023-04-30T01:05:28;14.10;94.80
10903;DHT22;5504;47.312;11.060;2023-04-30T01:07:55;14.10;94.70
10903;DHT22;5504;47.312;11.060;2023-04-30T01:10:25;14.00;94.60
10903;DHT22;5504;47.312;11.060;2023-04-30T01:20:52;14.10;94.90
10903;DHT22;5504;47.312;11.060;2023-04-30T01:29:02;14.20;95.00
10903;DHT22;5504;47.312;11.060;2023-04-30T01:31:28;14.20;94.90
10903;DHT22;5504;47.312;11.060;2023-04-30T01:33:54;14.20;95.40
10903;DHT22;5504;47.312;11.060;2023-04-30T01:39:45;14.10;95.00
10903;DHT22;5504;47.312;11.060;2023-04-30T01:42:19;14.10;95.30
10903;DHT22;5504;47.312;11.060;2023-04-30T01:52:51;14.00;95.50
10903;DHT22;5504;47.312;11.060;2023-04-30T01:55:20;14.00;95.60
10903;DHT22;5504;47.312;11.060;2023-04-30T01:57:59;14.00;95.60
10903;DHT22;5504;47.312;11.060;2023-04-30T02:00:26;14.00;95.60
10903;DHT22;5504;47.312;11.060;2023-04-30T02:02:52;13.90;95.60
10903;DHT22;5504;47.312;11.060;2023-04-30T02:05:18;13.90;95.60
10903;DHT22;5504;47.312;11.060;2023-04-30T02:07:46;13.90;95.70
10903;DHT22;5504;47.312;11.060;2023-04-30T02:10:14;13.90;95.80
10903;DHT22;5504;47.312;11.060;2023-04-30T02:12:40;13.90;95.50
10903;DHT22;5504;47.312;11.060;2023-04-30T02:15:06;13.90;95.60
10903;DHT22;5504;47.312;11.060;2023-04-30T02:17:32;14.00;95.50
10903;DHT22;5504;47.312;11.060;2023-04-30T02:19:59;14.00;95.20
10903;DHT22;5504;47.312;11.060;2023-04-30T02:22:25;14.00;95.30
10903;DHT22;5504;47.312;11.060;2023-04-30T02:24:51;14.00;95.40
10903;DHT22;5504;47.312;11.060;2023-04-30T02:27:20;14.00;95.40
10903;DHT22;5504;47.312;11.060;2023-04-30T02:29:46;14.00;95.20
10903;DHT22;5504;47.312;11.060;2023-04-30T02:32:12;14.00;95.00
10903;DHT22;5504;47.312;11.060;2023-04-30T02:34:39;14.00;94.90
10903;DHT22;5504;47.312;11.060;2023-04-30T02:37:05;13.90;95.00
10903;DHT22;5504;47.312;11.060;2023-04-30T02:39:31;13.70;95.00
10903;DHT22;5504;47.312;11.060;2023-04-30T02:41:57;13.60;95.20
10903;DHT22;5504;47.312;11.060;2023-04-30T02:44:23;13.70;95.60
10903;DHT22;5504;47.312;11.060;2023-04-30T02:46:49;13.50;95.60
10903;DHT22;5504;47.312;11.060;2023-04-30T02:49:15;13.60;96.00
10903;DHT22;5504;47.312;11.060;2023-04-30T02:51:41;13.70;95.80
10903;DHT22;5504;47.312;11.060;2023-04-30T02:54:06;13.80;95.70
10903;DHT22;5504;47.312;11.060;2023-04-30T02:56:32;13.80;95.70
10903;DHT22;5504;47.312;11.060;2023-04-30T02:58:59;13.90;95.70
10903;DHT22;5504;47.312;11.060;2023-04-30T03:01:25;13.80;95.50
10903;DHT22;5504;47.312;11.060;2023-04-30T03:03:51;13.80;95.60
10903;DHT22;5504;47.312;11.060;2023-04-30T03:06:16;13.80;95.60
10903;DHT22;5504;47.312;11.060;2023-04-30T03:08:42;13.80;95.30
10903;DHT22;5504;47.312;11.060;2023-04-30T03:11:08;13.80;95.30
10903;DHT22;5504;47.312;11.060;2023-04-30T03:13:33;13.80;95.20
10903;DHT22;5504;47.312;11.060;2023-04-30T03:16:02;13.70;95.30
10903;DHT22;5504;47.312;11.060;2023-04-30T03:18:32;13.80;95.40
10903;DHT22;5504;47.312;11.060;2023-04-30T03:20:57;13.80;95.30
10903;DHT22;5504;47.312;11.060;2023-04-30T03:23:25;13.90;95.00
10903;DHT22;5504;47.312;11.060;2023-04-30T03:25:51;13.80;94.90
10903;DHT22;5504;47.312;11.060;2023-04-30T03:28:17;13.80;95.00
10903;DHT22;5504;47.312;11.060;2023-04-30T03:30:43;13.80;95.00
10903;DHT22;5504;47.312;11.060;2023-04-30T03:33:09;13.60;95.10
10903;DHT22;5504;47.312;11.060;2023-04-30T03:35:35;13.60;95.50
10903;DHT22;5504;47.312;11.060;2023-04-30T03:38:01;13.60;95.60
10903;DHT22;5504;47.312;11.060;2023-04-30T03:40:26;13.40;95.70
10903;DHT22;5504;47.312;11.060;2023-04-30T03:42:52;13.50;95.80
10903;DHT22;5504;47.312;11.060;2023-04-30T03:45:18;13.30;95.90
10903;DHT22;5504;47.312;11.060;2023-04-30T03:47:44;13.40;95.90
10903;DHT22;5504;47.312;11.060;2023-04-30T03:50:10;13.40;95.90
10903;DHT22;5504;47.312;11.060;2023-04-30T03:52:36;13.50;95.50
10903;DHT22;5504;47.312;11.060;2023-04-30T03:55:03;13.50;95.60
10903;DHT22;5504;47.312;11.060;2023-04-30T03:57:28;13.50;95.70
10903;DHT22;5504;47.312;11.060;2023-04-30T03:59:54;13.50;95.30
10903;DHT22;5504;47.312;11.060;2023-04-30T04:02:20;13.60;95.30
10903;DHT22;5504;47.312;11.060;2023-04-30T04:04:47;13.30;95.40
10903;DHT22;5504;47.312;11.060;2023-04-30T04:07:12;13.40;95.50
10903;DHT22;5504;47.312;11.060;2023-04-30T04:09:39;13.50;95.50
10903;DHT22;5504;47.312;11.060;2023-04-30T04:12:05;13.50;95.20
10903;DHT22;5504;47.312;11.060;2023-04-30T04:14:31;13.50;94.80
10903;DHT22;5504;47.312;11.060;2023-04-30T04:16:56;13.40;94.90
10903;DHT22;5504;47.312;11.060;2023-04-30T04:19:24;13.20;94.90
10903;DHT22;5504;47.312;11.060;2023-04-30T04:21:50;13.20;95.00
10903;DHT22;5504;47.312;11.060;2023-04-30T04:24:16;13.20;94.80
10903;DHT22;5504;47.312;11.060;2023-04-30T04:26:42;13.10;94.70
10903;DHT22;5504;47.312;11.060;2023-04-30T04:29:07;13.10;95.00
10903;DHT22;5504;47.312;11.060;2023-04-30T04:31:34;12.90;95.20
10903;DHT22;5504;47.312;11.060;2023-04-30T04:34:02;13.00;95.30
10903;DHT22;5504;47.312;11.060;2023-04-30T04:36:29;12.90;95.20
10903;DHT22;5504;47.312;11.060;2023-04-30T04:38:58;12.90;95.20
10903;DHT22;5504;47.312;11.060;2023-04-30T04:41:31;13.10;95.10
10903;DHT22;5504;47.312;11.060;2023-04-30T04:44:03;13.10;94.80
10903;DHT22;5504;47.312;11.060;2023-04-30T04:46:32;12.80;94.60
10903;DHT22;5504;47.312;11.060;2023-04-30T04:48:58;12.90;95.00
10903;DHT22;5504;47.312;11.060;2023-04-30T04:51:24;13.00;94.90
10903;DHT22;5504;47.312;11.060;2023-04-30T04:53:50;13.10;94.70
10903;DHT22;5504;47.312;11.060;2023-04-30T04:56:15;13.00;95.10
10903;DHT22;5504;47.312;11.060;2023-04-30T04:58:42;13.10;94.90
10903;DHT22;5504;47.312;11.060;2023-04-30T05:01:08;13.00;94.70
10903;DHT22;5504;47.312;11.060;2023-04-30T05:03:35;13.00;94.90
10903;DHT22;5504;47.312;11.060;2023-04-30T05:06:04;13.10;94.90
10903;DHT22;5504;47.312;11.060;2023-04-30T05:08:30;13.20;94.80
10903;DHT22;5504;47.312;11.060;2023-04-30T05:10:55;13.20;94.40
10903;DHT22;5504;47.312;11.060;2023-04-30T05:13:21;12.90;94.50
10903;DHT22;5504;47.312;11.060;2023-04-30T05:15:50;12.90;94.90
10903;DHT22;5504;47.312;11.060;2023-04-30T05:18:16;13.20;94.70
10903;DHT22;5504;47.312;11.060;2023-04-30T05:20:42;13.10;94.50
10903;DHT22;5504;47.312;11.060;2023-04-30T05:23:08;13.10;94.70
10903;DHT22;5504;47.312;11.060;2023-04-30T05:25:35;13.20;94.60
10903;DHT22;5504;47.312;11.060;2023-04-30T05:28:00;13.40;94.30
10903;DHT22;5504;47.312;11.060;2023-04-30T05:30:26;13.50;94.00
10903;DHT22;5504;47.312;11.060;2023-04-30T05:32:52;13.30;93.90
10903;DHT22;5504;47.312;11.060;2023-04-30T05:35:18;13.30;93.80
10903;DHT22;5504;47.312;11.060;2023-04-30T05:37:44;13.40;93.60
10903;DHT22;5504;47.312;11.060;2023-04-30T05:40:11;13.30;93.50
10903;DHT22;5504;47.312;11.060;2023-04-30T05:42:37;13.30;93.80
10903;DHT22;5504;47.312;11.060;2023-04-30T05:45:09;13.40;93.90
10903;DHT22;5504;47.312;11.060;2023-04-30T05:47:36;13.40;93.90
10903;DHT22;5504;47.312;11.060;2023-04-30T05:50:02;13.40;93.90
10903;DHT22;5504;47.312;11.060;2023-04-30T05:52:28;13.40;93.50
10903;DHT22;5504;47.312;11.060;2023-04-30T05:54:53;13.50;93.50
10903;DHT22;5504;47.312;11.060;2023-04-30T05:57:19;13.50;93.30
10903;DHT22;5504;47.312;11.060;2023-04-30T05:59:45;13.30;93.50
10903;DHT22;5504;47.312;11.060;2023-04-30T06:02:10;13.40;93.40
10903;DHT22;5504;47.312;11.060;2023-04-30T06:04:36;13.50;93.20
10903;DHT22;5504;47.312;11.060;2023-04-30T06:07:02;13.60;93.20
10903;DHT22;5504;47.312;11.060;2023-04-30T06:09:27;13.60;93.00
10903;DHT22;5504;47.312;11.060;2023-04-30T06:11:53;13.60;93.00
10903;DHT22;5504;47.312;11.060;2023-04-30T06:14:20;13.60;92.90
10903;DHT22;5504;47.312;11.060;2023-04-30T06:16:47;13.60;92.90
10903;DHT22;5504;47.312;11.060;2023-04-30T06:19:13;13.60;93.50
10903;DHT22;5504;47.312;11.060;2023-04-30T06:21:38;13.50;92.90
10903;DHT22;5504;47.312;11.060;2023-04-30T06:24:04;13.20;93.50
10903;DHT22;5504;47.312;11.060;2023-04-30T06:26:31;13.30;93.70
10903;DHT22;5504;47.312;11.060;2023-04-30T06:28:57;13.50;93.70
10903;DHT22;5504;47.312;11.060;2023-04-30T06:31:23;13.70;93.40
10903;DHT22;5504;47.312;11.060;2023-04-30T06:33:48;13.80;93.20
10903;DHT22;5504;47.312;11.060;2023-04-30T06:36:15;13.90;93.00
10903;DHT22;5504;47.312;11.060;2023-04-30T06:38:40;14.00;93.00
10903;DHT22;5504;47.312;11.060;2023-04-30T06:41:07;14.10;92.60
10903;DHT22;5504;47.312;11.060;2023-04-30T06:43:33;13.90;92.20
10903;DHT22;5504;47.312;11.060;2023-04-30T06:45:59;14.10;92.60
10903;DHT22;5504;47.312;11.060;2023-04-30T06:48:24;14.20;92.30
10903;DHT22;5504;47.312;11.060;2023-04-30T06:50:50;13.90;92.00
10903;DHT22;5504;47.312;11.060;2023-04-30T06:53:16;13.70;93.00
10903;DHT22;5504;47.312;11.060;2023-04-30T06:55:43;13.60;93.20
10903;DHT22;5504;47.312;11.060;2023-04-30T06:58:09;13.40;93.30
10903;DHT22;5504;47.312;11.060;2023-04-30T07:00:35;13.70;93.40
10903;DHT22;5504;47.312;11.060;2023-04-30T07:03:01;13.70;92.80
10903;DHT22;5504;47.312;11.060;2023-04-30T07:05:31;13.80;92.40
10903;DHT22;5504;47.312;11.060;2023-04-30T07:07:59;14.00;92.20
10903;DHT22;5504;47.312;11.060;2023-04-30T07:10:26;13.80;91.60
10903;DHT22;5504;47.312;11.060;2023-04-30T07:12:51;13.50;92.30
10903;DHT22;5504;47.312;11.060;2023-04-30T07:15:18;13.60;92.90
10903;DHT22;5504;47.312;11.060;2023-04-30T07:17:43;13.90;92.90
10903;DHT22;5504;47.312;11.060;2023-04-30T07:20:10;14.10;92.70
10903;DHT22;5504;47.312;11.060;2023-04-30T07:22:37;14.20;92.00
10903;DHT22;5504;47.312;11.060;2023-04-30T07:25:03;14.10;92.20
10903;DHT22;5504;47.312;11.060;2023-04-30T07:27:29;14.40;92.60
10903;DHT22;5504;47.312;11.060;2023-04-30T07:29:55;14.60;92.10
10903;DHT22;5504;47.312;11.060;2023-04-30T07:32:21;14.70;91.90
10903;DHT22;5504;47.312;11.060;2023-04-30T07:34:47;14.80;91.60
10903;DHT22;5504;47.312;11.060;2023-04-30T07:37:13;14.80;91.60
10903;DHT22;5504;47.312;11.060;2023-04-30T07:39:38;14.30;91.80
10903;DHT22;5504;47.312;11.060;2023-04-30T07:42:05;14.70;91.70
10903;DHT22;5504;47.312;11.060;2023-04-30T07:44:30;14.80;91.00
10903;DHT22;5504;47.312;11.060;2023-04-30T07:46:56;14.80;90.50
10903;DHT22;5504;47.312;11.060;2023-04-30T07:49:22;14.90;90.40
10903;DHT22;5504;47.312;11.060;2023-04-30T07:51:48;15.10;90.00
10903;DHT22;5504;47.312;11.060;2023-04-30T07:54:13;15.20;90.40
10903;DHT22;5504;47.312;11.060;2023-04-30T07:56:39;15.60;90.50
10903;DHT22;5504;47.312;11.060;2023-04-30T07:59:07;15.80;87.90
10903;DHT22;5504;47.312;11.060;2023-04-30T08:01:33;15.60;88.40
10903;DHT22;5504;47.312;11.060;2023-04-30T08:03:59;15.90;89.20
10903;DHT22;5504;47.312;11.060;2023-04-30T08:06:24;16.00;86.50
10903;DHT22;5504;47.312;11.060;2023-04-30T08:08:52;16.40;86.50
10903;DHT22;5504;47.312;11.060;2023-04-30T08:11:17;15.60;85.10
10903;DHT22;5504;47.312;11.060;2023-04-30T08:13:44;15.40;86.80
10903;DHT22;5504;47.312;11.060;2023-04-30T08:16:09;15.30;86.30
10903;DHT22;5504;47.312;11.060;2023-04-30T08:18:35;15.20;87.60
10903;DHT22;5504;47.312;11.060;2023-04-30T08:21:04;16.00;89.80
10903;DHT22;5504;47.312;11.060;2023-04-30T08:23:30;15.30;85.60
10903;DHT22;5504;47.312;11.060;2023-04-30T08:25:56;14.90;89.10
10903;DHT22;5504;47.312;11.060;2023-04-30T08:28:22;15.70;89.80
10903;DHT22;5504;47.312;11.060;2023-04-30T08:30:47;16.40;88.00
10903;DHT22;5504;47.312;11.060;2023-04-30T08:33:13;16.90;86.50
10903;DHT22;5504;47.312;11.060;2023-04-30T08:35:39;17.20;83.20
10903;DHT22;5504;47.312;11.060;2023-04-30T08:38:05;17.30;81.30
10903;DHT22;5504;47.312;11.060;2023-04-30T08:40:34;17.50;83.00
10903;DHT22;5504;47.312;11.060;2023-04-30T08:43:07;17.50;81.50
10903;DHT22;5504;47.312;11.060;2023-04-30T08:45:34;17.50;77.90
10903;DHT22;5504;47.312;11.060;2023-04-30T08:48:02;17.30;79.90
10903;DHT22;5504;47.312;11.060;2023-04-30T08:50:29;17.60;81.00
10903;DHT22;5504;47.312;11.060;2023-04-30T08:52:57;17.60;80.40
10903;DHT22;5504;47.312;11.060;2023-04-30T08:55:24;17.70;79.10
10903;DHT22;5504;47.312;11.060;2023-04-30T08:57:50;17.70;79.20
10903;DHT22;5504;47.312;11.060;2023-04-30T09:00:16;17.70;80.00
10903;DHT22;5504;47.312;11.060;2023-04-30T09:02:42;17.60;78.60
10903;DHT22;5504;47.312;11.060;2023-04-30T09:05:11;17.70;79.60
10903;DHT22;5504;47.312;11.060;2023-04-30T09:07:40;17.90;80.20
10903;DHT22;5504;47.312;11.060;2023-04-30T09:10:27;16.60;78.90
10903;DHT22;5504;47.312;11.060;2023-04-30T09:13:08;16.20;79.30
10903;DHT22;5504;47.312;11.060;2023-04-30T09:15:35;16.70;83.00
10903;DHT22;5504;47.312;11.060;2023-04-30T09:18:19;17.20;83.00
10903;DHT22;5504;47.312;11.060;2023-04-30T09:20:57;17.40;79.60
10903;DHT22;5504;47.312;11.060;2023-04-30T09:23:23;17.80;81.10
10903;DHT22;5504;47.312;11.060;2023-04-30T09:25:49;17.90;78.50
10903;DHT22;5504;47.312;11.060;2023-04-30T09:28:15;16.00;79.30
10903;DHT22;5504;47.312;11.060;2023-04-30T09:30:42;16.50;82.20
10903;DHT22;5504;47.312;11.060;2023-04-30T09:33:08;17.00;81.30
10903;DHT22;5504;47.312;11.060;2023-04-30T09:35:35;17.40;78.90
10903;DHT22;5504;47.312;11.060;2023-04-30T09:38:02;17.00;79.30
10903;DHT22;5504;47.312;11.060;2023-04-30T09:40:41;17.00;78.40
10903;DHT22;5504;47.312;11.060;2023-04-30T09:43:07;17.30;78.70
10903;DHT22;5504;47.312;11.060;2023-04-30T09:45:46;16.80;77.10
10903;DHT22;5504;47.312;11.060;2023-04-30T09:48:18;16.90;78.10
10903;DHT22;5504;47.312;11.060;2023-04-30T09:50:45;16.80;79.20
10903;DHT22;5504;47.312;11.060;2023-04-30T09:53:12;16.60;76.10
10903;DHT22;5504;47.312;11.060;2023-04-30T09:55:42;17.50;79.40
10903;DHT22;5504;47.312;11.060;2023-04-30T09:58:09;18.10;75.40
10903;DHT22;5504;47.312;11.060;2023-04-30T10:00:36;18.50;75.80
10903;DHT22;5504;47.312;11.060;2023-04-30T10:03:06;18.70;74.10
10903;DHT22;5504;47.312;11.060;2023-04-30T10:05:36;19.10;73.80
10903;DHT22;5504;47.312;11.060;2023-04-30T10:08:11;18.80;73.20
10903;DHT22;5504;47.312;11.060;2023-04-30T10:10:39;19.20;71.70
10903;DHT22;5504;47.312;11.060;2023-04-30T10:13:10;18.70;74.40
10903;DHT22;5504;47.312;11.060;2023-04-30T10:15:44;18.80;71.00
10903;DHT22;5504;47.312;11.060;2023-04-30T10:18:23;18.60;70.60
10903;DHT22;5504;47.312;11.060;2023-04-30T10:20:53;18.80;70.20
10903;DHT22;5504;47.312;11.060;2023-04-30T10:23:20;18.90;71.60
10903;DHT22;5504;47.312;11.060;2023-04-30T10:25:46;19.30;71.00
10903;DHT22;5504;47.312;11.060;2023-04-30T10:28:13;19.40;72.30
10903;DHT22;5504;47.312;11.060;2023-04-30T10:30:40;18.80;71.20
10903;DHT22;5504;47.312;11.060;2023-04-30T10:36:06;19.30;70.30
10903;DHT22;5504;47.312;11.060;2023-04-30T10:38:37;19.50;72.10
10903;DHT22;5504;47.312;11.060;2023-04-30T10:41:05;19.40;70.30
10903;DHT22;5504;47.312;11.060;2023-04-30T10:43:34;18.90;70.90
10903;DHT22;5504;47.312;11.060;2023-04-30T10:46:01;19.10;69.70
10903;DHT22;5504;47.312;11.060;2023-04-30T10:48:27;19.40;71.30
10903;DHT22;5504;47.312;11.060;2023-04-30T10:50:56;20.00;71.50
10903;DHT22;5504;47.312;11.060;2023-04-30T10:53:23;20.40;70.00
10903;DHT22;5504;47.312;11.060;2023-04-30T10:56:03;20.60;69.60
10903;DHT22;5504;47.312;11.060;2023-04-30T10:58:35;19.50;66.00
10903;DHT22;5504;47.312;11.060;2023-04-30T11:03:29;19.70;67.70
10903;DHT22;5504;47.312;11.060;2023-04-30T11:05:55;20.30;68.50
10903;DHT22;5504;47.312;11.060;2023-04-30T11:08:35;20.20;67.60
10903;DHT22;5504;47.312;11.060;2023-04-30T11:11:01;20.90;67.20
10903;DHT22;5504;47.312;11.060;2023-04-30T11:13:38;21.00;65.40
10903;DHT22;5504;47.312;11.060;2023-04-30T11:16:04;20.70;63.90
10903;DHT22;5504;47.312;11.060;2023-04-30T11:18:30;20.70;66.00
10903;DHT22;5504;47.312;11.060;2023-04-30T11:20:56;21.10;65.80
10903;DHT22;5504;47.312;11.060;2023-04-30T11:23:24;21.40;63.00
10903;DHT22;5504;47.312;11.060;2023-04-30T11:25:53;20.50;59.40
10903;DHT22;5504;47.312;11.060;2023-04-30T11:28:24;21.00;67.60
10903;DHT22;5504;47.312;11.060;2023-04-30T11:30:55;21.40;66.40
10903;DHT22;5504;47.312;11.060;2023-04-30T11:33:24;21.40;64.20
10903;DHT22;5504;47.312;11.060;2023-04-30T11:35:51;21.80;60.50
10903;DHT22;5504;47.312;11.060;2023-04-30T11:38:20;20.50;60.10
10903;DHT22;5504;47.312;11.060;2023-04-30T11:40:50;20.30;59.70
10903;DHT22;5504;47.312;11.060;2023-04-30T11:43:23;21.00;63.10
10903;DHT22;5504;47.312;11.060;2023-04-30T11:48:33;22.40;61.50
10903;DHT22;5504;47.312;11.060;2023-04-30T11:51:02;21.80;60.40
10903;DHT22;5504;47.312;11.060;2023-04-30T11:53:29;21.40;57.90
10903;DHT22;5504;47.312;11.060;2023-04-30T11:55:55;20.70;59.40
10903;DHT22;5504;47.312;11.060;2023-04-30T11:58:21;21.50;60.90
10903;DHT22;5504;47.312;11.060;2023-04-30T12:00:48;22.40;57.40
10903;DHT22;5504;47.312;11.060;2023-04-30T12:03:14;22.60;59.30
10903;DHT22;5504;47.312;11.060;2023-04-30T12:05:41;23.40;60.60
10903;DHT22;5504;47.312;11.060;2023-04-30T12:08:07;23.80;56.60
10903;DHT22;5504;47.312;11.060;2023-04-30T12:10:36;23.40;56.10
10903;DHT22;5504;47.312;11.060;2023-04-30T12:13:02;22.60;53.80
10903;DHT22;5504;47.312;11.060;2023-04-30T12:15:28;22.30;55.10
10903;DHT22;5504;47.312;11.060;2023-04-30T12:17:56;23.10;58.00
10903;DHT22;5504;47.312;11.060;2023-04-30T12:20:27;24.20;56.90
10903;DHT22;5504;47.312;11.060;2023-04-30T12:22:53;24.20;56.10
10903;DHT22;5504;47.312;11.060;2023-04-30T12:25:21;24.60;55.90
10903;DHT22;5504;47.312;11.060;2023-04-30T12:27:48;24.70;55.60
10903;DHT22;5504;47.312;11.060;2023-04-30T12:30:17;24.90;55.00
10903;DHT22;5504;47.312;11.060;2023-04-30T12:32:44;24.80;53.00
10903;DHT22;5504;47.312;11.060;2023-04-30T12:35:15;24.40;56.00
10903;DHT22;5504;47.312;11.060;2023-04-30T12:37:47;24.60;54.90
10903;DHT22;5504;47.312;11.060;2023-04-30T12:40:15;24.60;51.80
10903;DHT22;5504;47.312;11.060;2023-04-30T12:42:42;24.70;54.10
10903;DHT22;5504;47.312;11.060;2023-04-30T12:45:09;24.70;55.00
10903;DHT22;5504;47.312;11.060;2023-04-30T12:47:39;24.40;55.00
10903;DHT22;5504;47.312;11.060;2023-04-30T12:50:09;24.70;55.40
10903;DHT22;5504;47.312;11.060;2023-04-30T12:52:38;24.90;54.00
10903;DHT22;5504;47.312;11.060;2023-04-30T12:55:20;24.50;54.50
10903;DHT22;5504;47.312;11.060;2023-04-30T12:58:05;23.90;52.70
10903;DHT22;5504;47.312;11.060;2023-04-30T13:00:50;23.10;52.30
10903;DHT22;5504;47.312;11.060;2023-04-30T13:03:18;23.40;55.80
10903;DHT22;5504;47.312;11.060;2023-04-30T13:05:49;22.40;53.10
10903;DHT22;5504;47.312;11.060;2023-04-30T13:08:17;22.70;57.80
10903;DHT22;5504;47.312;11.060;2023-04-30T13:10:43;23.30;53.30
10903;DHT22;5504;47.312;11.060;2023-04-30T13:13:10;23.40;53.60
10903;DHT22;5504;47.312;11.060;2023-04-30T13:15:36;23.10;56.70
10903;DHT22;5504;47.312;11.060;2023-04-30T13:18:02;23.40;56.10
10903;DHT22;5504;47.312;11.060;2023-04-30T13:20:28;23.10;53.80
10903;DHT22;5504;47.312;11.060;2023-04-30T13:22:54;22.90;54.60
10903;DHT22;5504;47.312;11.060;2023-04-30T13:25:20;23.30;55.70
10903;DHT22;5504;47.312;11.060;2023-04-30T13:27:46;23.50;55.60
10903;DHT22;5504;47.312;11.060;2023-04-30T13:30:12;23.90;53.90
10903;DHT22;5504;47.312;11.060;2023-04-30T13:32:38;23.90;54.20
10903;DHT22;5504;47.312;11.060;2023-04-30T13:35:05;22.40;54.10
10903;DHT22;5504;47.312;11.060;2023-04-30T13:37:31;23.00;55.90
10903;DHT22;5504;47.312;11.060;2023-04-30T13:39:57;22.60;54.30
10903;DHT22;5504;47.312;11.060;2023-04-30T13:42:25;22.90;55.80
10903;DHT22;5504;47.312;11.060;2023-04-30T13:44:51;22.70;54.00
10903;DHT22;5504;47.312;11.060;2023-04-30T13:47:18;21.90;53.70
10903;DHT22;5504;47.312;11.060;2023-04-30T13:49:44;22.80;55.60
10903;DHT22;5504;47.312;11.060;2023-04-30T13:52:09;23.10;52.80
10903;DHT22;5504;47.312;11.060;2023-04-30T13:54:35;21.70;53.00
10903;DHT22;5504;47.312;11.060;2023-04-30T13:57:01;22.20;53.70
10903;DHT22;5504;47.312;11.060;2023-04-30T13:59:28;21.80;53.10
10903;DHT22;5504;47.312;11.060;2023-04-30T14:01:53;22.30;54.90
10903;DHT22;5504;47.312;11.060;2023-04-30T14:04:19;22.70;52.00
10903;DHT22;5504;47.312;11.060;2023-04-30T14:06:45;22.90;55.30
10903;DHT22;5504;47.312;11.060;2023-04-30T14:09:13;23.30;52.00
10903;DHT22;5504;47.312;11.060;2023-04-30T14:11:40;23.70;55.90
10903;DHT22;5504;47.312;11.060;2023-04-30T14:14:07;23.30;51.20
10903;DHT22;5504;47.312;11.060;2023-04-30T14:16:33;23.40;54.00
10903;DHT22;5504;47.312;11.060;2023-04-30T14:18:59;22.80;52.30
10903;DHT22;5504;47.312;11.060;2023-04-30T14:21:25;22.70;54.00
10903;DHT22;5504;47.312;11.060;2023-04-30T14:23:51;22.20;53.40
10903;DHT22;5504;47.312;11.060;2023-04-30T14:26:17;21.60;56.40
10903;DHT22;5504;47.312;11.060;2023-04-30T14:28:43;21.90;56.30
10903;DHT22;5504;47.312;11.060;2023-04-30T14:31:09;22.30;56.60
10903;DHT22;5504;47.312;11.060;2023-04-30T14:33:35;21.20;54.50
10903;DHT22;5504;47.312;11.060;2023-04-30T14:36:01;20.90;55.30
10903;DHT22;5504;47.312;11.060;2023-04-30T14:38:26;21.40;56.20
10903;DHT22;5504;47.312;11.060;2023-04-30T14:40:52;21.20;55.20
10903;DHT22;5504;47.312;11.060;2023-04-30T14:43:18;21.00;56.30
10903;DHT22;5504;47.312;11.060;2023-04-30T14:45:44;20.40;56.30
10903;DHT22;5504;47.312;11.060;2023-04-30T14:48:11;20.60;57.00
10903;DHT22;5504;47.312;11.060;2023-04-30T14:50:37;21.10;56.60
10903;DHT22;5504;47.312;11.060;2023-04-30T14:53:03;21.90;59.60
10903;DHT22;5504;47.312;11.060;2023-04-30T14:55:30;21.50;56.30
10903;DHT22;5504;47.312;11.060;2023-04-30T14:57:57;22.10;56.60
10903;DHT22;5504;47.312;11.060;2023-04-30T15:00:23;21.90;57.40
10903;DHT22;5504;47.312;11.060;2023-04-30T15:02:49;21.80;56.60
10903;DHT22;5504;47.312;11.060;2023-04-30T15:05:15;22.30;58.30
10903;DHT22;5504;47.312;11.060;2023-04-30T15:07:41;22.20;56.90
10903;DHT22;5504;47.312;11.060;2023-04-30T15:10:07;22.50;57.10
10903;DHT22;5504;47.312;11.060;2023-04-30T15:12:34;22.50;56.10
10903;DHT22;5504;47.312;11.060;2023-04-30T15:15:00;22.40;54.90
10903;DHT22;5504;47.312;11.060;2023-04-30T15:17:27;22.00;56.70
10903;DHT22;5504;47.312;11.060;2023-04-30T15:19:53;21.80;57.20
10903;DHT22;5504;47.312;11.060;2023-04-30T15:22:19;21.60;57.60
10903;DHT22;5504;47.312;11.060;2023-04-30T15:24:45;21.70;58.10
10903;DHT22;5504;47.312;11.060;2023-04-30T15:27:11;21.50;56.90
10903;DHT22;5504;47.312;11.060;2023-04-30T15:29:37;21.30;58.70
10903;DHT22;5504;47.312;11.060;2023-04-30T15:32:04;21.30;58.00
10903;DHT22;5504;47.312;11.060;2023-04-30T15:34:30;21.00;57.70
10903;DHT22;5504;47.312;11.060;2023-04-30T15:36:56;20.60;58.40
10903;DHT22;5504;47.312;11.060;2023-04-30T15:39:23;20.40;58.40
10903;DHT22;5504;47.312;11.060;2023-04-30T15:41:49;20.50;58.70
10903;DHT22;5504;47.312;11.060;2023-04-30T15:44:15;20.40;58.60
10903;DHT22;5504;47.312;11.060;2023-04-30T15:46:41;20.30;58.90
10903;DHT22;5504;47.312;11.060;2023-04-30T15:49:07;20.20;59.30
10903;DHT22;5504;47.312;11.060;2023-04-30T15:51:33;20.10;59.00
10903;DHT22;5504;47.312;11.060;2023-04-30T15:54:00;20.00;59.60
10903;DHT22;5504;47.312;11.060;2023-04-30T15:56:27;19.90;60.40
10903;DHT22;5504;47.312;11.060;2023-04-30T15:58:53;19.90;60.60
10903;DHT22;5504;47.312;11.060;2023-04-30T16:01:18;19.70;60.70
10903;DHT22;5504;47.312;11.060;2023-04-30T16:03:44;19.60;61.10